createdAt,value
2019-03-22T00:00:11.816Z,50.50
2019-03-22T00:02:40.365Z,49.33
2019-03-22T00:05:08.955Z,47.13
2019-03-22T00:07:37.577Z,46.27
2019-03-22T00:10:07.494Z,44.37
2019-03-22T00:12:36.102Z,44.20
2019-03-22T00:15:07.038Z,42.13
2019-03-22T00:17:36.005Z,41.37
2019-03-22T00:20:07.060Z,40.07
2019-03-22T00:22:35.564Z,40.03
2019-03-22T00:25:08.177Z,38.90
2019-03-22T00:27:36.755Z,37.93
2019-03-22T00:30:07.557Z,39.07
2019-03-22T00:32:36.222Z,37.40
2019-03-22T00:35:06.757Z,37.20
2019-03-22T00:37:35.308Z,38.37
2019-03-22T00:40:09.077Z,40.20
2019-03-22T00:42:37.578Z,39.03
2019-03-22T00:45:10.629Z,39.17
2019-03-22T00:47:39.212Z,37.10
2019-03-22T00:53:48.513Z,36.83
2019-03-22T00:56:17.089Z,36.97
2019-03-22T00:58:45.627Z,36.97
2019-03-22T01:01:19.337Z,37.03
2019-03-22T01:04:00.140Z,40.20
2019-03-22T01:06:27.520Z,40.53
2019-03-22T01:08:56.619Z,40.17
2019-03-22T01:11:25.227Z,40.50
2019-03-22T01:13:55.263Z,40.07
2019-03-22T01:16:23.851Z,41.87
2019-03-22T01:18:52.418Z,42.53
2019-03-22T01:21:20.949Z,41.07
2019-03-22T01:23:49.590Z,41.63
2019-03-22T01:26:19.161Z,37.73
2019-03-22T01:28:48.444Z,39.30
2019-03-22T01:31:16.986Z,39.37
2019-03-22T01:33:45.482Z,40.50
2019-03-22T01:36:14.434Z,39.00
2019-03-22T01:38:44.136Z,40.60
2019-03-22T01:41:13.387Z,41.20
2019-03-22T01:43:41.906Z,41.03
2019-03-22T01:46:10.439Z,41.80
2019-03-22T01:48:38.986Z,41.63
2019-03-22T01:51:07.593Z,41.57
2019-03-22T01:53:36.180Z,43.53
2019-03-22T01:59:33.181Z,42.67
2019-03-22T02:02:01.705Z,42.77
2019-03-22T02:04:30.333Z,41.93
2019-03-22T02:06:58.827Z,43.53
2019-03-22T02:09:27.431Z,44.47
2019-03-22T02:11:55.977Z,44.87
2019-03-22T02:14:24.535Z,42.73
2019-03-22T02:16:53.068Z,42.80
2019-03-22T02:19:21.678Z,44.57
2019-03-22T02:21:50.246Z,41.47
2019-03-22T02:24:18.801Z,43.57
2019-03-22T02:26:47.373Z,46.33
2019-03-22T02:29:15.956Z,44.73
2019-03-22T02:31:44.527Z,45.53
2019-03-22T02:34:13.042Z,45.47
2019-03-22T02:36:41.699Z,47.50
2019-03-22T02:39:10.280Z,48.67
2019-03-22T02:41:38.978Z,50.13
2019-03-22T02:44:07.600Z,48.10
2019-03-22T02:46:36.108Z,49.97
2019-03-22T02:49:04.760Z,51.80
2019-03-22T02:51:33.234Z,52.27
2019-03-22T02:54:01.726Z,53.63
2019-03-22T02:56:30.247Z,52.47
2019-03-22T02:58:59.428Z,52.97
2019-03-22T03:01:28.418Z,50.90
2019-03-22T03:03:57.688Z,52.20
2019-03-22T03:06:26.307Z,49.30
2019-03-22T03:08:54.814Z,52.23
2019-03-22T03:11:23.316Z,53.17
2019-03-22T03:13:51.824Z,50.23
2019-03-22T03:16:20.344Z,50.27
2019-03-22T03:18:49.990Z,52.97
2019-03-22T03:21:18.533Z,51.50
2019-03-22T03:23:47.044Z,51.97
2019-03-22T03:26:15.588Z,52.27
2019-03-22T03:28:44.140Z,52.63
2019-03-22T03:31:12.615Z,52.67
2019-03-22T03:33:41.272Z,51.70
2019-03-22T03:36:09.988Z,51.60
2019-03-22T03:38:38.571Z,52.77
2019-03-22T03:41:07.316Z,50.50
2019-03-22T03:43:35.858Z,52.67
2019-03-22T03:46:04.488Z,54.13
2019-03-22T03:48:33.078Z,51.53
2019-03-22T03:51:01.639Z,53.33
2019-03-22T03:53:30.225Z,52.23
2019-03-22T03:55:58.697Z,51.47
2019-03-22T03:58:27.190Z,49.93
2019-03-22T04:04:24.779Z,47.03
2019-03-22T04:06:54.070Z,49.77
2019-03-22T04:09:22.571Z,49.30
2019-03-22T04:11:51.076Z,51.23
2019-03-22T04:14:19.651Z,49.57
2019-03-22T04:16:48.135Z,45.63
2019-03-22T04:19:17.887Z,44.93
2019-03-22T04:21:46.361Z,43.43
2019-03-22T04:24:14.862Z,44.37
2019-03-22T04:26:43.447Z,44.23
2019-03-22T04:29:13.545Z,45.33
2019-03-22T04:31:42.208Z,45.83
2019-03-22T04:34:10.710Z,43.90
2019-03-22T04:36:39.205Z,42.83
2019-03-22T04:39:08.035Z,45.73
2019-03-22T04:41:36.625Z,44.43
2019-03-22T04:44:05.210Z,45.10
2019-03-22T04:46:33.879Z,45.33
2019-03-22T04:49:02.434Z,46.17
2019-03-22T04:51:32.955Z,44.93
2019-03-22T04:54:03.119Z,44.60
2019-03-22T04:56:33.942Z,44.77
2019-03-22T04:59:04.647Z,44.63
2019-03-22T05:01:34.007Z,45.20
2019-03-22T05:07:31.696Z,42.03
2019-03-22T05:10:01.904Z,44.37
2019-03-22T05:12:31.351Z,44.87
2019-03-22T05:15:01.270Z,46.53
2019-03-22T05:17:31.936Z,45.03
2019-03-22T05:20:02.187Z,47.10
2019-03-22T05:22:32.910Z,46.83
2019-03-22T05:25:03.549Z,47.30
2019-03-22T05:27:35.350Z,47.23
2019-03-22T05:30:05.932Z,48.33
2019-03-22T05:32:34.497Z,47.47
2019-03-22T05:38:31.978Z,48.03
2019-03-22T05:44:28.987Z,47.00
2019-03-22T05:46:57.518Z,45.57
2019-03-22T05:49:26.021Z,47.40
2019-03-22T05:55:23.147Z,46.20
2019-03-22T05:57:51.645Z,47.43
2019-03-22T06:00:20.232Z,46.63
2019-03-22T06:02:48.732Z,46.47
2019-03-22T06:05:17.230Z,46.97
2019-03-22T06:07:45.751Z,45.97
2019-03-22T06:10:14.707Z,47.80
2019-03-22T06:12:43.302Z,46.53
2019-03-22T06:15:12.140Z,45.43
2019-03-22T06:20:57.373Z,44.83
2019-03-22T06:23:45.133Z,46.67
2019-03-22T06:26:32.915Z,45.57
2019-03-22T06:29:20.650Z,49.67
2019-03-22T06:32:08.433Z,50.50
2019-03-22T06:34:56.181Z,50.67
2019-03-22T06:37:43.971Z,50.03
2019-03-22T06:40:31.726Z,49.83
2019-03-22T06:43:19.509Z,52.70
2019-03-22T06:46:07.257Z,52.03
2019-03-22T06:48:55.037Z,52.50
2019-03-22T06:51:42.792Z,52.10
2019-03-22T06:54:31.766Z,52.87
2019-03-22T06:57:20.052Z,53.80
2019-03-22T07:00:28.553Z,54.17
2019-03-22T07:03:16.334Z,54.77
2019-03-22T07:06:04.145Z,56.60
2019-03-22T07:08:51.921Z,56.50
2019-03-22T07:11:41.800Z,58.57
2019-03-22T07:14:22.376Z,59.17
2019-03-22T07:17:03.137Z,56.77
2019-03-22T07:19:43.455Z,58.33
2019-03-22T07:22:24.549Z,62.63
2019-03-22T07:25:05.519Z,59.70
2019-03-22T07:27:47.300Z,60.70
2019-03-22T07:30:28.642Z,61.73
2019-03-22T07:33:08.966Z,60.33
2019-03-22T07:35:49.955Z,62.17
2019-03-22T07:38:30.858Z,63.53
2019-03-22T07:41:11.701Z,57.00
2019-03-22T07:43:52.576Z,62.43
2019-03-22T07:46:33.156Z,61.70
2019-03-22T07:49:13.983Z,61.77
2019-03-22T07:51:54.371Z,58.27
2019-03-22T07:54:35.009Z,54.70
2019-03-22T07:57:15.810Z,54.53
2019-03-22T07:59:56.557Z,55.20
2019-03-22T08:02:37.391Z,54.43
2019-03-22T08:05:17.899Z,55.37
2019-03-22T08:07:58.661Z,52.50
2019-03-22T08:10:39.326Z,49.87
2019-03-22T08:13:19.924Z,47.70
2019-03-22T08:16:00.969Z,42.53
2019-03-22T08:18:41.382Z,43.50
2019-03-22T08:21:22.010Z,43.30
2019-03-22T08:24:02.782Z,43.87
2019-03-22T08:26:43.377Z,44.47
2019-03-22T08:29:24.133Z,42.17
2019-03-22T08:32:04.977Z,39.90
2019-03-22T08:34:47.777Z,37.73
2019-03-22T08:37:28.644Z,39.50
2019-03-22T08:40:08.973Z,40.17
2019-03-22T08:42:50.013Z,40.83
2019-03-22T08:45:30.710Z,43.13
2019-03-22T08:48:11.576Z,42.90
2019-03-22T08:50:52.054Z,43.20
2019-03-22T08:53:32.958Z,43.07
2019-03-22T08:56:13.899Z,44.73
2019-03-22T08:58:54.365Z,42.03
2019-03-22T09:01:34.789Z,44.07
2019-03-22T09:04:05.419Z,42.90
2019-03-22T09:06:33.958Z,41.20
2019-03-22T09:09:02.689Z,40.03
2019-03-22T09:11:31.255Z,39.07
2019-03-22T09:13:59.861Z,39.73
2019-03-22T09:16:30.712Z,38.87
2019-03-22T09:18:58.629Z,38.23
2019-03-22T09:21:27.103Z,37.23
2019-03-22T09:23:55.624Z,37.67
2019-03-22T09:26:24.192Z,36.90
2019-03-22T09:28:52.787Z,38.13
2019-03-22T09:31:21.334Z,38.20
2019-03-22T09:33:49.865Z,37.37
2019-03-22T09:36:18.613Z,36.63
2019-03-22T09:38:47.092Z,37.93
2019-03-22T09:41:15.590Z,37.50
2019-03-22T09:43:44.183Z,37.00
2019-03-22T09:46:12.986Z,34.60
2019-03-22T09:48:41.777Z,34.80
2019-03-22T09:51:10.609Z,34.67
2019-03-22T09:53:39.110Z,34.07
2019-03-22T09:56:07.590Z,35.73
2019-03-22T09:58:36.136Z,32.97
2019-03-22T10:01:06.274Z,34.10
2019-03-22T10:03:34.901Z,36.03
2019-03-22T10:06:03.492Z,37.50
2019-03-22T10:08:32.007Z,35.63
2019-03-22T10:11:00.565Z,36.73
2019-03-22T10:13:29.127Z,36.27
2019-03-22T10:15:57.731Z,38.47
2019-03-22T10:18:26.327Z,35.43
2019-03-22T10:20:55.823Z,36.63
2019-03-22T10:23:24.336Z,38.57
2019-03-22T10:25:52.870Z,40.47
2019-03-22T10:28:21.417Z,40.93
2019-03-22T10:30:50.025Z,40.53
2019-03-22T10:33:23.013Z,39.40
2019-03-22T10:35:48.877Z,40.53
2019-03-22T10:38:30.664Z,40.07
2019-03-22T10:40:47.687Z,38.43
2019-03-22T10:43:16.155Z,42.10
2019-03-22T10:45:44.738Z,43.53
2019-03-22T10:48:13.452Z,44.40
2019-03-22T10:50:41.988Z,43.40
2019-03-22T10:53:10.462Z,41.23
2019-03-22T10:55:38.995Z,41.07
2019-03-22T10:58:20.398Z,41.83
2019-03-22T11:00:38.999Z,41.03
2019-03-22T11:03:07.527Z,40.40
2019-03-22T11:05:36.040Z,42.20
2019-03-22T11:08:04.770Z,41.50
2019-03-22T11:10:33.279Z,44.17
2019-03-22T11:13:01.966Z,41.53
2019-03-22T11:15:30.624Z,41.53
2019-03-22T11:17:59.121Z,40.93
2019-03-22T11:20:27.663Z,41.37
2019-03-22T11:22:59.507Z,42.40
2019-03-22T11:25:28.014Z,42.60
2019-03-22T11:28:00.383Z,42.37
2019-03-22T11:30:29.304Z,44.90
2019-03-22T11:32:57.910Z,43.60
2019-03-22T11:38:54.601Z,42.87
2019-03-22T11:41:23.163Z,44.40
2019-03-22T11:43:51.717Z,42.80
2019-03-22T11:46:20.180Z,44.97
2019-03-22T11:48:48.672Z,42.83
2019-03-22T11:51:17.191Z,41.37
2019-03-22T11:53:45.695Z,42.20
2019-03-22T11:56:14.194Z,41.80
2019-03-22T12:02:10.866Z,41.23
2019-03-22T12:04:39.418Z,39.87
2019-03-22T12:07:08.083Z,42.90
2019-03-22T12:09:36.565Z,42.97
2019-03-22T12:12:05.091Z,41.00
2019-03-22T12:14:33.603Z,41.70
2019-03-22T12:17:02.104Z,42.60
2019-03-22T12:19:30.695Z,40.60
2019-03-22T12:21:59.212Z,41.67
2019-03-22T12:24:27.811Z,40.80
2019-03-22T12:26:56.291Z,39.70
2019-03-22T12:29:24.834Z,39.03
2019-03-22T12:31:53.545Z,39.80
2019-03-22T12:34:22.054Z,40.07
2019-03-22T12:36:50.598Z,39.60
2019-03-22T12:39:19.991Z,40.23
2019-03-22T12:41:48.492Z,40.37
2019-03-22T12:47:57.954Z,39.90
2019-03-22T12:50:27.017Z,39.90
2019-03-22T12:52:55.681Z,41.47
2019-03-22T12:55:24.435Z,40.20
2019-03-22T12:57:53.301Z,39.90
2019-03-22T13:00:26.218Z,41.37
2019-03-22T13:02:55.084Z,39.83
2019-03-22T13:05:23.902Z,41.02
2019-03-22T13:11:21.160Z,41.23
2019-03-22T13:13:49.879Z,42.20
2019-03-22T13:16:18.618Z,42.10
2019-03-22T13:18:50.367Z,42.95
2019-03-22T13:21:17.497Z,42.35
2019-03-22T13:23:46.055Z,42.00
2019-03-22T13:26:14.557Z,40.43
2019-03-22T13:28:43.031Z,44.58
2019-03-22T13:31:11.772Z,42.73
2019-03-22T13:33:40.318Z,43.78
2019-03-22T13:36:08.951Z,43.40
2019-03-22T13:42:06.333Z,44.90
2019-03-22T13:44:35.099Z,42.20
2019-03-22T13:47:03.740Z,44.27
2019-03-22T13:49:32.345Z,44.38
2019-03-22T13:52:00.897Z,44.35
2019-03-22T13:54:29.394Z,44.50
2019-03-22T13:56:57.951Z,43.68
2019-03-22T13:59:26.548Z,42.70
2019-03-22T14:01:55.112Z,45.08
2019-03-22T14:04:23.718Z,44.55
2019-03-22T14:06:52.260Z,43.38
2019-03-22T14:09:21.779Z,46.18
2019-03-22T14:11:50.288Z,46.73
2019-03-22T14:14:19.178Z,45.28
2019-03-22T14:16:47.690Z,45.00
2019-03-22T14:19:16.172Z,47.53
2019-03-22T14:21:44.681Z,47.30
2019-03-22T14:24:13.199Z,46.07
2019-03-22T14:26:41.731Z,46.77
2019-03-22T14:29:10.275Z,47.03
2019-03-22T14:31:40.527Z,47.60
2019-03-22T14:34:09.078Z,47.17
2019-03-22T14:36:37.616Z,47.80
2019-03-22T14:39:08.704Z,48.50
2019-03-22T14:41:37.492Z,47.10
2019-03-22T14:47:34.118Z,47.93
2019-03-22T14:50:02.664Z,48.87
2019-03-22T14:52:31.578Z,47.27
2019-03-22T14:55:00.388Z,48.40
2019-03-22T14:57:29.052Z,47.00
2019-03-22T14:59:59.136Z,48.00
2019-03-22T15:02:27.759Z,47.07
2019-03-22T15:04:56.392Z,46.93
2019-03-22T15:07:24.979Z,46.40
2019-03-22T15:09:53.580Z,45.53
2019-03-22T15:12:22.262Z,44.77
2019-03-22T15:14:55.121Z,45.67
2019-03-22T15:17:31.093Z,46.73
2019-03-22T15:20:13.042Z,48.53
2019-03-22T15:22:55.487Z,47.50
2019-03-22T15:25:25.682Z,46.03
2019-03-22T15:28:13.991Z,46.30
2019-03-22T15:30:56.082Z,45.37
2019-03-22T15:33:35.142Z,45.23
2019-03-22T15:36:08.367Z,44.90
2019-03-22T15:38:55.174Z,45.17
2019-03-22T15:41:23.726Z,45.80
2019-03-22T15:43:52.477Z,45.57
2019-03-22T15:46:21.201Z,47.60
2019-03-22T15:48:49.847Z,46.43
2019-03-22T15:51:18.338Z,45.40
2019-03-22T15:53:46.843Z,46.77
2019-03-22T15:56:15.435Z,46.27
2019-03-22T15:58:44.034Z,48.67
2019-03-22T16:01:12.509Z,46.27
2019-03-22T16:03:44.350Z,47.13
2019-03-22T16:06:11.278Z,47.90
2019-03-22T16:08:39.747Z,48.90
2019-03-22T16:11:08.285Z,46.40
2019-03-22T16:13:36.871Z,49.10
2019-03-22T16:16:05.403Z,49.77
2019-03-22T16:18:33.983Z,46.40
2019-03-22T16:21:02.467Z,46.27
2019-03-22T16:23:30.992Z,49.27
2019-03-22T16:25:59.499Z,48.53
2019-03-22T16:28:28.066Z,47.37
2019-03-22T16:30:56.661Z,50.70
2019-03-22T16:37:06.253Z,48.80
2019-03-22T16:39:34.821Z,52.57
2019-03-22T16:42:03.317Z,50.40
2019-03-22T16:44:31.805Z,51.70
2019-03-22T16:47:00.309Z,50.87
2019-03-22T16:49:28.856Z,49.70
2019-03-22T16:55:25.390Z,51.40
2019-03-22T16:57:53.892Z,52.43
2019-03-22T17:00:22.485Z,50.37
2019-03-22T17:02:51.090Z,51.37
2019-03-22T17:05:19.632Z,53.00
2019-03-22T17:07:48.143Z,51.17
2019-03-22T17:13:45.154Z,51.57
2019-03-22T17:16:13.681Z,51.60
2019-03-22T17:18:42.272Z,54.20
2019-03-22T17:21:10.743Z,53.80
2019-03-22T17:23:39.223Z,55.77
2019-03-22T17:26:07.762Z,55.37
2019-03-22T17:28:36.580Z,54.87
2019-03-22T17:31:05.163Z,54.00
2019-03-22T17:33:33.692Z,54.80
2019-03-22T17:36:02.192Z,53.03
2019-03-22T17:38:30.688Z,56.23
2019-03-22T17:40:59.300Z,56.90
2019-03-22T17:43:27.953Z,57.60
2019-03-22T17:45:56.552Z,53.17
2019-03-22T17:48:25.063Z,54.67
2019-03-22T17:54:22.231Z,50.73
2019-03-22T17:56:51.092Z,54.37
2019-03-22T17:59:38.917Z,53.77
2019-03-22T18:02:26.692Z,53.37
2019-03-22T18:05:14.549Z,52.57
2019-03-22T18:08:02.317Z,54.97
2019-03-22T18:10:50.079Z,51.43
2019-03-22T18:13:37.853Z,53.77
2019-03-22T18:16:25.624Z,54.70
2019-03-22T18:19:13.381Z,58.00
2019-03-22T18:22:01.181Z,56.27
2019-03-22T18:24:48.926Z,56.17
2019-03-22T18:27:36.698Z,56.13
2019-03-22T18:30:17.731Z,57.20
2019-03-22T18:32:58.383Z,59.57
2019-03-22T18:35:38.980Z,60.90
2019-03-22T18:38:19.935Z,61.63
2019-03-22T18:41:00.433Z,61.50
2019-03-22T18:43:41.542Z,61.83
2019-03-22T18:46:22.185Z,60.13
2019-03-22T18:49:02.954Z,59.37
2019-03-22T18:51:43.740Z,60.47
2019-03-22T18:54:12.232Z,62.47
2019-03-22T18:56:40.662Z,59.27
2019-03-22T18:59:28.428Z,62.80
2019-03-22T19:01:56.878Z,59.33
2019-03-22T19:04:44.620Z,65.13
2019-03-22T19:07:32.410Z,65.40
2019-03-22T19:10:20.188Z,68.50
2019-03-22T19:13:07.972Z,67.37
2019-03-22T19:15:55.738Z,66.17
2019-03-22T19:18:43.516Z,68.07
2019-03-22T19:21:31.275Z,65.20
2019-03-22T19:24:19.066Z,71.20
2019-03-22T19:27:06.842Z,68.53
2019-03-22T19:29:47.707Z,66.47
2019-03-22T19:32:28.238Z,69.53
2019-03-22T19:34:56.705Z,71.07
2019-03-22T19:37:44.471Z,68.60
2019-03-22T19:40:32.249Z,68.37
2019-03-22T19:43:20.077Z,68.80
2019-03-22T19:46:07.922Z,63.67
2019-03-22T19:48:55.672Z,69.50
2019-03-22T19:51:43.525Z,67.17
2019-03-22T19:54:31.273Z,67.37
2019-03-22T19:57:19.067Z,69.83
2019-03-22T20:00:27.549Z,69.87
2019-03-22T20:02:56.020Z,68.80
2019-03-22T20:05:43.808Z,70.97
2019-03-22T20:08:31.565Z,74.00
2019-03-22T20:11:19.673Z,73.80
2019-03-22T20:14:07.476Z,70.27
2019-03-22T20:16:55.231Z,74.53
2019-03-22T20:19:43.057Z,71.37
2019-03-22T20:22:30.811Z,71.77
2019-03-22T20:25:18.605Z,69.70
2019-03-22T20:27:59.577Z,71.13
2019-03-22T20:30:40.252Z,74.20
2019-03-22T20:33:20.779Z,70.80
2019-03-22T20:36:01.125Z,69.97
2019-03-22T20:38:42.141Z,72.97
2019-03-22T20:41:22.548Z,70.80
2019-03-22T20:44:03.047Z,75.23
2019-03-22T20:46:43.790Z,75.13
2019-03-22T20:49:24.557Z,74.67
2019-03-22T20:51:52.984Z,74.97
2019-03-22T20:54:40.773Z,74.77
2019-03-22T20:57:28.543Z,72.83
2019-03-22T21:00:17.498Z,72.53
2019-03-22T21:02:46.608Z,70.67
2019-03-22T21:05:34.388Z,75.33
2019-03-22T21:08:22.128Z,74.10
2019-03-22T21:10:50.648Z,76.20
2019-03-22T21:13:38.581Z,74.20
2019-03-22T21:16:26.422Z,72.77
2019-03-22T21:19:14.270Z,81.47
2019-03-22T21:22:02.036Z,76.17
2019-03-22T21:24:42.887Z,79.60
2019-03-22T21:27:23.982Z,76.33
2019-03-22T21:30:04.803Z,76.30
2019-03-22T21:32:46.010Z,78.60
2019-03-22T21:35:36.704Z,74.60
2019-03-22T21:38:10.989Z,81.93
2019-03-22T21:40:51.851Z,78.90
2019-03-22T21:43:32.291Z,77.67
2019-03-22T21:46:13.237Z,78.77
2019-03-22T21:48:53.900Z,75.77
2019-03-22T21:51:34.652Z,75.20
2019-03-22T21:54:15.166Z,74.17
2019-03-22T21:56:55.810Z,78.53
2019-03-22T21:59:36.703Z,79.20
2019-03-22T22:02:17.033Z,78.57
2019-03-22T22:04:57.645Z,78.13
2019-03-22T22:07:26.090Z,77.80
2019-03-22T22:10:13.861Z,79.23
2019-03-22T22:13:01.610Z,75.90
2019-03-22T22:15:49.400Z,78.73
2019-03-22T22:18:37.174Z,78.20
2019-03-22T22:21:24.929Z,76.50
2019-03-22T22:24:12.705Z,82.00
2019-03-22T22:26:41.125Z,84.50
2019-03-22T22:29:28.915Z,77.07
2019-03-22T22:32:09.918Z,79.40
2019-03-22T22:34:50.821Z,81.33
2019-03-22T22:37:31.882Z,80.50
2019-03-22T22:40:12.209Z,83.77
2019-03-22T22:42:53.195Z,83.17
2019-03-22T22:45:34.002Z,76.90
2019-03-22T22:48:14.699Z,85.40
2019-03-22T22:50:55.476Z,79.73
2019-03-22T22:53:36.385Z,87.70
2019-03-22T22:56:17.080Z,87.70
2019-03-22T22:58:57.583Z,86.70
2019-03-22T23:01:26.076Z,90.67
2019-03-22T23:03:54.550Z,96.90
2019-03-22T23:06:42.322Z,96.00
2019-03-22T23:09:30.088Z,89.33
2019-03-22T23:12:17.923Z,90.10
2019-03-22T23:15:26.425Z,89.10
2019-03-22T23:18:14.276Z,89.03
2019-03-22T23:20:54.958Z,95.93
2019-03-22T23:23:35.941Z,90.63
2019-03-22T23:26:16.666Z,90.33
2019-03-22T23:28:57.537Z,99.43
2019-03-22T23:31:38.206Z,91.23
2019-03-22T23:34:19.169Z,96.17
2019-03-22T23:36:59.993Z,91.73
2019-03-22T23:39:40.754Z,92.13
2019-03-22T23:42:21.692Z,101.30
2019-03-22T23:45:02.399Z,95.70
2019-03-22T23:47:42.811Z,92.40
2019-03-22T23:50:23.809Z,91.23
2019-03-22T23:53:04.565Z,97.47
2019-03-22T23:55:45.465Z,102.20
2019-03-22T23:58:26.358Z,96.50
